map of ANS home
ANS - Airport
Location
City:  Andahuaylas, Apurímac, Perú
Name:Andahuaylas Airport
ICAO:SPHY
IATA:ANS

Details
Type:Airport (Aerodrome, Airfield)
Use:Public/Civil
Latitude:13°42'32"S (-13.708818)
Longitude:73°21'06"W (-73.351555)
Elevation:11706 ft (3568 m)
Variation:4.50°W (WMM2015 magnetic declination)
-0.18° annual change
Runways:1
Longest:8202 × 148 ft (2500 × 45 m), paved

Time
Time Zone:UTC-5
Local Time:

Weather
METAR:SPHY 121700Z 36003KT 9999 FEW020 BKN070 16/04 Q1032 RMK PP000
TAF:SPHY 121700Z 1218/1318 36003KT 9999 FEW020 BKN070 TX17/1219Z TN01/1311Z
TEMPO 1218/1223 FEW020 SCT070

Related Locations
Nearby:
Farthest:RBE: 12427 mi / 19999 km
Ban Lung [Ratanakiri Airport], 16, KH

Find:

   beyond  
but within

Other Information
Maps:
NOTAMs:
Links:
Sources:

  
  • flag of Perú
  

Sectional Chart

Flight Planning
at skyvector.com

Satellite Image

Google Maps Satellite view

 

Copyright © 2004-2018 Karl L. Swartz. All rights reserved.
The Great Circle Mapper name and logo are trademarks of the Great Circle Mapper.
All other trademarks mentioned herein belong to their respective owners.
Please see credits for attibutions and further copyright information.

  Follow gcmap on Facebook Follow gcmap on Twitter Follow gcmap on Google+ GCmap on LinkedIn

hCard Microformat

Geo Microformat